Time;durP1;ratioP1;P1;durP2;ratioP2;P2;SDS_P1;SDS_P2;PMS_P1;PMS_P2;Temp;Humidity;BMP_temperature;BMP_pressure;BME280_temperature;BME280_humidity;BME280_pressure;Samples;Min_cycle;Max_cycle;Signal;HPM_P1;HPM_P2
2022/03/15 00:00:37;;;;;;;11.90;11.50;;;2.40;99.90;;;;;;5071909;28;20238;-81
2022/03/15 00:03:06;;;;;;;11.77;11.37;;;2.40;99.90;;;;;;5059430;28;20238;-82
2022/03/15 00:05:36;;;;;;;11.73;11.33;;;2.40;99.90;;;;;;5083079;28;20272;-81
2022/03/15 00:08:06;;;;;;;12.00;11.60;;;2.40;99.90;;;;;;5076939;28;20235;-82
2022/03/15 00:10:34;;;;;;;11.87;11.47;;;2.40;99.90;;;;;;5064771;28;20235;-82
2022/03/15 00:13:12;;;;;;;11.97;11.57;;;2.50;99.90;;;;;;5063190;28;20227;-81
2022/03/15 00:15:43;;;;;;;11.97;11.57;;;2.50;99.90;;;;;;5066181;28;20218;-82
2022/03/15 00:18:11;;;;;;;12.00;11.60;;;2.50;99.90;;;;;;5064237;28;20253;-82
2022/03/15 00:20:41;;;;;;;11.87;11.47;;;2.50;99.90;;;;;;5059418;28;20294;-82
2022/03/15 00:23:11;;;;;;;11.80;11.40;;;2.50;99.90;;;;;;5061282;28;20226;-81
2022/03/15 00:25:40;;;;;;;11.80;11.40;;;2.50;99.90;;;;;;5061686;28;20971;-81
2022/03/15 00:28:18;;;;;;;11.80;11.40;;;2.50;99.90;;;;;;5061897;28;20237;-82
2022/03/15 00:30:47;;;;;;;11.70;11.30;;;2.50;99.90;;;;;;5061237;28;20242;-82
2022/03/15 00:33:16;;;;;;;11.60;11.20;;;2.50;99.90;;;;;;5061246;28;20326;-82
2022/03/15 00:35:47;;;;;;;11.87;11.47;;;2.50;99.90;;;;;;5060909;28;20261;-82
2022/03/15 00:38:16;;;;;;;11.83;11.43;;;2.50;99.90;;;;;;5061178;28;20230;-82
2022/03/15 00:40:46;;;;;;;11.80;11.40;;;2.50;99.90;;;;;;5061734;28;20592;-81
2022/03/15 00:43:17;;;;;;;11.90;11.50;;;2.60;99.90;;;;;;5062024;28;20257;-82
2022/03/15 00:45:45;;;;;;;11.60;11.20;;;2.50;99.90;;;;;;5062554;28;20215;-82
2022/03/15 00:48:13;;;;;;;12.10;11.70;;;2.60;99.90;;;;;;5063135;28;20223;-82
2022/03/15 00:50:42;;;;;;;11.90;11.50;;;2.50;99.90;;;;;;5061979;28;20269;-82
2022/03/15 00:53:11;;;;;;;11.47;11.07;;;2.50;99.90;;;;;;5092596;22;20237;-83
2022/03/15 00:55:39;;;;;;;12.10;11.70;;;2.50;99.90;;;;;;5072737;28;20250;-83
2022/03/15 00:58:07;;;;;;;11.90;11.50;;;2.50;99.90;;;;;;5072459;28;20262;-83
2022/03/15 01:00:36;;;;;;;11.80;11.40;;;2.40;99.90;;;;;;5065073;28;20231;-83
2022/03/15 01:03:04;;;;;;;11.80;11.40;;;2.40;99.90;;;;;;5074927;28;20242;-83
2022/03/15 01:05:33;;;;;;;11.70;11.30;;;2.40;99.90;;;;;;5081864;28;20218;-83
2022/03/15 01:08:01;;;;;;;11.63;11.23;;;2.40;99.90;;;;;;5082463;28;20226;-83
2022/03/15 01:10:28;;;;;;;11.63;11.23;;;2.40;99.90;;;;;;5081891;28;20238;-83
2022/03/15 01:12:56;;;;;;;11.60;11.20;;;2.40;99.90;;;;;;5080439;28;20237;-83
2022/03/15 01:15:24;;;;;;;11.60;11.20;;;2.50;99.90;;;;;;5081455;28;20232;-83
2022/03/15 01:17:54;;;;;;;11.70;11.30;;;2.50;99.90;;;;;;5081348;28;20241;-83
2022/03/15 01:20:23;;;;;;;11.87;11.47;;;2.50;99.90;;;;;;5092678;28;20234;-83
2022/03/15 01:22:51;;;;;;;11.77;11.37;;;2.40;99.90;;;;;;5080633;28;20240;-83
2022/03/15 01:25:18;;;;;;;11.60;11.20;;;2.40;99.90;;;;;;5083135;28;20244;-83
2022/03/15 01:27:46;;;;;;;11.50;11.10;;;2.40;99.90;;;;;;5080863;28;20280;-83
2022/03/15 01:30:14;;;;;;;11.30;11.00;;;2.40;99.90;;;;;;5080905;28;20230;-84
2022/03/15 01:32:42;;;;;;;11.43;11.07;;;2.40;99.90;;;;;;5080418;28;20238;-83
2022/03/15 01:35:11;;;;;;;11.00;10.70;;;2.40;99.90;;;;;;5079800;28;20260;-84
2022/03/15 01:37:39;;;;;;;11.67;11.27;;;2.30;99.90;;;;;;5081088;28;20234;-83
2022/03/15 01:40:08;;;;;;;11.67;11.27;;;2.20;99.90;;;;;;5080974;28;20233;-83
2022/03/15 01:42:36;;;;;;;11.47;11.07;;;2.20;99.90;;;;;;5080405;28;20233;-83
2022/03/15 01:45:05;;;;;;;11.47;11.07;;;2.20;99.90;;;;;;5081642;28;20214;-83
2022/03/15 01:47:33;;;;;;;11.20;10.90;;;2.20;99.90;;;;;;5087857;28;20302;-83
2022/03/15 01:50:03;;;;;;;11.50;11.10;;;2.10;99.90;;;;;;5083930;28;20253;-83
2022/03/15 01:52:32;;;;;;;11.60;11.20;;;2.00;99.90;;;;;;5080471;28;20237;-82
2022/03/15 01:55:01;;;;;;;11.63;11.23;;;1.90;99.90;;;;;;5081215;28;20230;-83
2022/03/15 01:57:29;;;;;;;11.77;11.37;;;1.90;99.90;;;;;;5080214;28;20284;-83
2022/03/15 01:59:57;;;;;;;11.60;11.20;;;1.80;99.90;;;;;;5080620;28;20230;-83
2022/03/15 02:02:25;;;;;;;11.63;11.23;;;1.80;99.90;;;;;;5079709;28;20669;-83
2022/03/15 02:04:53;;;;;;;11.80;11.40;;;1.70;99.90;;;;;;5080097;28;20230;-83
2022/03/15 02:07:21;;;;;;;11.70;11.30;;;1.70;99.90;;;;;;5080122;28;20230;-83
2022/03/15 02:09:51;;;;;;;11.50;11.10;;;1.70;99.90;;;;;;5080460;28;20234;-82
2022/03/15 02:12:19;;;;;;;11.80;11.40;;;1.70;99.90;;;;;;5079177;28;20238;-83
2022/03/15 02:14:47;;;;;;;11.40;11.00;;;1.70;99.90;;;;;;5080022;28;20248;-82
2022/03/15 02:17:14;;;;;;;11.50;11.10;;;1.70;99.90;;;;;;5079780;28;20230;-83
2022/03/15 02:19:44;;;;;;;11.63;11.23;;;1.60;99.90;;;;;;5079121;28;20240;-84
2022/03/15 02:22:14;;;;;;;11.90;11.50;;;1.60;99.90;;;;;;5078996;28;20276;-82
2022/03/15 02:24:42;;;;;;;11.57;11.17;;;1.60;99.90;;;;;;5078875;28;20227;-83
2022/03/15 02:27:10;;;;;;;11.47;11.07;;;1.60;99.90;;;;;;5079046;28;20236;-82
2022/03/15 02:29:38;;;;;;;11.50;11.10;;;1.60;99.90;;;;;;5078656;28;20226;-82
2022/03/15 02:32:07;;;;;;;11.60;11.20;;;1.60;99.90;;;;;;5079169;28;20237;-82
2022/03/15 02:34:35;;;;;;;11.57;11.17;;;1.70;99.90;;;;;;5079618;28;20229;-82
2022/03/15 02:37:03;;;;;;;11.50;11.10;;;1.70;99.90;;;;;;5081990;28;20683;-83
2022/03/15 02:39:32;;;;;;;11.67;11.27;;;1.70;99.90;;;;;;5080609;28;20261;-82
2022/03/15 02:42:00;;;;;;;11.73;11.33;;;1.60;99.90;;;;;;5081874;28;20295;-82
2022/03/15 02:44:28;;;;;;;11.70;11.30;;;1.60;99.90;;;;;;5083124;28;20231;-82
2022/03/15 02:46:56;;;;;;;11.60;11.20;;;1.60;99.90;;;;;;5082213;28;20230;-82
2022/03/15 02:49:24;;;;;;;11.57;11.17;;;1.60;99.90;;;;;;5082484;28;20226;-82
2022/03/15 02:51:52;;;;;;;11.77;11.37;;;1.60;99.90;;;;;;5080872;28;20249;-83
2022/03/15 02:54:20;;;;;;;11.60;11.20;;;1.60;99.90;;;;;;5082290;28;20219;-82
2022/03/15 02:56:49;;;;;;;11.60;11.20;;;1.60;99.90;;;;;;5081983;28;20226;-82
2022/03/15 02:59:17;;;;;;;11.70;11.30;;;1.60;99.90;;;;;;5082455;28;20230;-82
2022/03/15 03:01:46;;;;;;;11.73;11.33;;;1.60;99.90;;;;;;5081948;28;20659;-83
2022/03/15 03:04:14;;;;;;;11.73;11.33;;;1.50;99.90;;;;;;5081731;28;20226;-82
2022/03/15 03:06:43;;;;;;;11.83;11.43;;;1.50;99.90;;;;;;5082516;28;20226;-82
2022/03/15 03:09:11;;;;;;;11.43;11.03;;;1.50;99.90;;;;;;5086408;28;20210;-82
2022/03/15 03:11:39;;;;;;;11.60;11.20;;;1.50;99.90;;;;;;5101959;27;20222;-84
2022/03/15 03:14:13;;;;;;;11.60;11.20;;;1.50;99.90;;;;;;5101957;27;20198;-83
2022/03/15 03:16:41;;;;;;;11.70;11.30;;;1.50;99.90;;;;;;5102073;27;20272;-84
2022/03/15 03:19:09;;;;;;;11.80;11.40;;;1.50;99.90;;;;;;5101690;27;20222;-84
2022/03/15 03:21:38;;;;;;;11.80;11.40;;;1.50;99.90;;;;;;5096797;27;20260;-83
2022/03/15 03:24:08;;;;;;;11.97;11.57;;;1.60;99.90;;;;;;5085957;28;20222;-82
2022/03/15 03:26:39;;;;;;;11.70;11.30;;;1.60;99.90;;;;;;5081313;28;20285;-82
2022/03/15 03:29:10;;;;;;;11.83;11.43;;;1.60;99.90;;;;;;5080785;28;20237;-83
2022/03/15 03:31:39;;;;;;;12.00;11.60;;;1.70;99.90;;;;;;5081024;28;20292;-82
2022/03/15 03:34:08;;;;;;;11.80;11.40;;;1.70;99.90;;;;;;5080863;28;20230;-82
2022/03/15 03:36:37;;;;;;;12.20;11.80;;;1.70;99.90;;;;;;5081595;28;20317;-83
2022/03/15 03:39:06;;;;;;;11.90;11.50;;;1.70;99.90;;;;;;5081246;28;20242;-82
2022/03/15 03:41:33;;;;;;;12.00;11.60;;;1.80;99.90;;;;;;5081668;28;20233;-83
2022/03/15 03:44:01;;;;;;;12.00;11.60;;;1.80;99.90;;;;;;5082904;28;20234;-82
2022/03/15 03:46:32;;;;;;;11.90;11.50;;;1.80;99.90;;;;;;5081571;28;20245;-82
2022/03/15 03:49:00;;;;;;;11.90;11.50;;;1.70;99.90;;;;;;5081811;28;20794;-83
2022/03/15 03:51:27;;;;;;;11.93;11.53;;;1.70;99.90;;;;;;5081429;28;20226;-82
2022/03/15 03:53:55;;;;;;;12.00;11.60;;;1.60;99.90;;;;;;5081911;28;20309;-83
2022/03/15 03:56:23;;;;;;;12.00;11.60;;;1.60;99.90;;;;;;5086383;28;20234;-82
2022/03/15 03:58:50;;;;;;;12.20;11.80;;;1.60;99.90;;;;;;5084856;28;20264;-83
2022/03/15 04:01:18;;;;;;;12.10;11.70;;;1.60;99.90;;;;;;5083180;28;20388;-83
2022/03/15 04:03:48;;;;;;;12.30;11.90;;;1.70;99.90;;;;;;5082166;28;20229;-82
2022/03/15 04:06:15;;;;;;;12.30;11.90;;;1.70;99.90;;;;;;5082049;28;20245;-82
2022/03/15 04:08:46;;;;;;;12.40;12.00;;;1.70;99.90;;;;;;5081255;28;20230;-82
2022/03/15 04:11:14;;;;;;;12.13;11.73;;;1.70;99.90;;;;;;5081336;28;20237;-83
2022/03/15 04:13:42;;;;;;;12.13;11.73;;;1.80;99.90;;;;;;5081027;28;20222;-83
2022/03/15 04:16:10;;;;;;;12.10;11.70;;;1.70;99.90;;;;;;5081361;28;20313;-82
2022/03/15 04:18:38;;;;;;;12.07;11.67;;;1.80;99.90;;;;;;5081139;28;20274;-82
2022/03/15 04:21:07;;;;;;;12.20;11.80;;;1.80;99.90;;;;;;5080515;28;20237;-82
2022/03/15 04:23:35;;;;;;;12.20;11.80;;;1.80;99.90;;;;;;5080489;28;20238;-82
2022/03/15 04:26:03;;;;;;;11.77;11.37;;;1.80;99.90;;;;;;5081230;28;20238;-83
2022/03/15 04:28:31;;;;;;;11.73;11.33;;;1.80;99.90;;;;;;5081526;28;20240;-83
2022/03/15 04:30:58;;;;;;;11.93;11.53;;;1.70;99.90;;;;;;5081053;28;20257;-82
2022/03/15 04:33:26;;;;;;;12.00;11.60;;;1.60;99.90;;;;;;5080138;28;20226;-82
2022/03/15 04:35:54;;;;;;;11.83;11.43;;;1.60;99.90;;;;;;5080828;28;20226;-82
2022/03/15 04:38:23;;;;;;;11.80;11.40;;;1.60;99.90;;;;;;5080905;28;20278;-82
2022/03/15 04:40:51;;;;;;;11.80;11.40;;;1.70;99.90;;;;;;5081760;28;20280;-83
2022/03/15 04:43:19;;;;;;;12.10;11.70;;;1.70;99.90;;;;;;5080258;28;20265;-82
2022/03/15 04:45:46;;;;;;;11.87;11.47;;;1.70;99.90;;;;;;5081220;28;20248;-83
2022/03/15 04:48:28;;;;;;;11.80;11.40;;;1.80;99.90;;;;;;5081107;28;20252;-82
2022/03/15 04:50:56;;;;;;;11.67;11.27;;;1.70;99.90;;;;;;5080331;28;20222;-82
2022/03/15 04:53:25;;;;;;;11.80;11.40;;;1.80;99.90;;;;;;5079674;28;20242;-82
2022/03/15 04:55:53;;;;;;;11.67;11.27;;;1.80;99.90;;;;;;5081562;28;20237;-82
2022/03/15 04:58:23;;;;;;;11.77;11.37;;;1.80;99.90;;;;;;5085368;28;20218;-82
2022/03/15 05:00:51;;;;;;;11.80;11.40;;;1.80;99.90;;;;;;5081939;28;20282;-82
2022/03/15 05:03:18;;;;;;;11.90;11.50;;;1.90;99.90;;;;;;5078794;28;20245;-82
2022/03/15 05:05:46;;;;;;;11.90;11.50;;;1.90;99.90;;;;;;5080781;28;20240;-82
2022/03/15 05:08:14;;;;;;;11.90;11.50;;;2.00;99.90;;;;;;5080130;28;20291;-82
2022/03/15 05:13:29;;;;;;;12.13;11.73;;;2.00;99.90;;;;;;5087995;28;20230;-81
2022/03/15 05:15:57;;;;;;;11.97;11.57;;;2.00;99.90;;;;;;5083093;28;20229;-82
2022/03/15 05:18:24;;;;;;;12.00;11.60;;;2.00;99.90;;;;;;5083056;28;20233;-82
2022/03/15 05:20:52;;;;;;;12.20;11.80;;;2.10;99.90;;;;;;5094063;27;20233;-83
2022/03/15 05:23:20;;;;;;;12.80;12.40;;;2.10;99.90;;;;;;5086900;28;20253;-82
2022/03/15 05:25:50;;;;;;;13.07;12.60;;;2.10;99.90;;;;;;5081018;28;20243;-82
2022/03/15 05:28:18;;;;;;;13.03;12.63;;;2.20;99.90;;;;;;5080419;28;20237;-82
2022/03/15 05:30:46;;;;;;;12.80;12.40;;;2.20;99.90;;;;;;5080676;28;20245;-82
2022/03/15 05:33:13;;;;;;;12.07;11.67;;;2.20;99.90;;;;;;5080177;28;20234;-82
2022/03/15 05:35:41;;;;;;;12.67;12.27;;;2.20;99.90;;;;;;5080835;28;20230;-82
2022/03/15 05:38:10;;;;;;;12.70;12.30;;;2.20;99.90;;;;;;5080443;28;20229;-82
2022/03/15 05:40:38;;;;;;;12.53;12.13;;;2.10;99.90;;;;;;5080865;28;20230;-82
2022/03/15 05:43:07;;;;;;;12.90;12.50;;;2.10;99.90;;;;;;5081038;28;20233;-82
2022/03/15 05:45:36;;;;;;;12.77;12.37;;;2.20;99.90;;;;;;5081398;28;20226;-82
2022/03/15 05:48:04;;;;;;;12.80;12.40;;;2.20;99.90;;;;;;5082347;28;20236;-83
2022/03/15 05:50:32;;;;;;;13.00;12.60;;;2.10;99.90;;;;;;5081438;28;20265;-82
2022/03/15 05:53:04;;;;;;;12.83;12.43;;;2.00;99.90;;;;;;5083207;28;20252;-82
2022/03/15 05:55:33;;;;;;;13.00;12.60;;;2.00;99.90;;;;;;5082157;28;20230;-83
2022/03/15 05:58:01;;;;;;;12.80;12.40;;;2.10;99.90;;;;;;5080932;28;20222;-82
2022/03/15 06:00:32;;;;;;;12.57;12.17;;;2.20;99.90;;;;;;5080923;28;20256;-82
2022/03/15 06:03:00;;;;;;;12.50;12.10;;;2.20;99.90;;;;;;5081225;28;20321;-82
2022/03/15 06:05:30;;;;;;;12.57;12.17;;;2.20;99.90;;;;;;5082621;28;20238;-82
2022/03/15 06:07:58;;;;;;;12.40;12.00;;;2.20;99.90;;;;;;5082014;28;20307;-82
2022/03/15 06:10:28;;;;;;;12.80;12.40;;;2.30;99.90;;;;;;5082029;28;20225;-82
2022/03/15 06:12:58;;;;;;;12.70;12.30;;;2.40;99.90;;;;;;5092358;27;20240;-83
2022/03/15 06:15:25;;;;;;;13.10;12.70;;;2.40;99.90;;;;;;5101005;27;20253;-83
2022/03/15 06:17:59;;;;;;;12.90;12.50;;;2.40;99.90;;;;;;5101262;27;20260;-83
2022/03/15 06:20:28;;;;;;;12.83;12.43;;;2.40;99.90;;;;;;5098585;28;20230;-82
2022/03/15 06:22:56;;;;;;;12.97;12.57;;;2.40;99.90;;;;;;5092933;27;20216;-83
2022/03/15 06:25:24;;;;;;;12.90;12.50;;;2.50;99.90;;;;;;5102592;27;20268;-82
2022/03/15 06:27:52;;;;;;;12.77;12.37;;;2.60;99.90;;;;;;5102799;27;20210;-82
2022/03/15 06:30:20;;;;;;;12.93;12.53;;;2.60;99.90;;;;;;5102217;27;20218;-83
2022/03/15 06:32:48;;;;;;;12.90;12.50;;;2.70;99.90;;;;;;5098810;27;20244;-82
2022/03/15 06:35:19;;;;;;;12.33;11.93;;;2.80;99.90;;;;;;5084470;28;20236;-82
2022/03/15 06:37:49;;;;;;;12.77;12.37;;;2.80;99.90;;;;;;5082439;28;20254;-82
2022/03/15 06:40:24;;;;;;;13.00;12.53;;;2.90;99.90;;;;;;5082042;28;20238;-83
2022/03/15 06:42:53;;;;;;;13.17;12.67;;;2.90;99.90;;;;;;5081132;28;20226;-83
2022/03/15 06:45:21;;;;;;;13.10;12.60;;;3.00;99.90;;;;;;5082157;28;20234;-82
2022/03/15 06:47:49;;;;;;;12.73;12.33;;;3.00;99.90;;;;;;5081934;28;20261;-83
2022/03/15 06:50:19;;;;;;;12.70;12.30;;;3.10;99.90;;;;;;5083307;28;20234;-82
2022/03/15 06:52:49;;;;;;;12.63;12.23;;;3.10;99.90;;;;;;5113601;22;20214;-79
2022/03/15 06:55:19;;;;;;;12.70;12.30;;;3.20;99.90;;;;;;5084405;28;20328;-81
2022/03/15 06:57:48;;;;;;;12.70;12.30;;;3.20;99.90;;;;;;5083869;28;20288;-81
2022/03/15 07:00:18;;;;;;;12.67;12.27;;;3.20;99.90;;;;;;5083549;28;20233;-81
2022/03/15 07:02:47;;;;;;;12.63;12.23;;;3.20;99.90;;;;;;5086696;28;20245;-81
2022/03/15 07:05:17;;;;;;;12.60;12.20;;;3.20;99.90;;;;;;5083934;28;20241;-81
2022/03/15 07:07:49;;;;;;;12.57;12.17;;;3.30;99.90;;;;;;5086303;28;20233;-80
2022/03/15 07:10:17;;;;;;;12.67;12.27;;;3.30;99.90;;;;;;5085606;28;20230;-81
2022/03/15 07:12:46;;;;;;;12.60;12.20;;;3.30;99.90;;;;;;5085024;28;20234;-81
2022/03/15 07:15:16;;;;;;;12.40;12.00;;;3.30;99.90;;;;;;5084438;28;20245;-81
2022/03/15 07:17:52;;;;;;;12.50;12.10;;;3.40;99.90;;;;;;5084018;28;20253;-80
2022/03/15 07:20:23;;;;;;;12.63;12.23;;;3.50;99.90;;;;;;5094384;28;20277;-78
2022/03/15 07:22:54;;;;;;;12.17;11.77;;;3.60;99.90;;;;;;5101126;28;20222;-80
2022/03/15 07:25:23;;;;;;;12.20;11.80;;;3.60;99.90;;;;;;5095234;28;20264;-81
2022/03/15 07:27:51;;;;;;;12.07;11.67;;;3.60;99.90;;;;;;5086383;28;20241;-81
2022/03/15 07:30:20;;;;;;;12.30;11.90;;;3.70;99.90;;;;;;5085857;28;20218;-81
2022/03/15 07:32:49;;;;;;;12.20;11.80;;;3.60;99.90;;;;;;5085277;28;20238;-83
2022/03/15 07:35:19;;;;;;;12.50;12.10;;;3.70;99.90;;;;;;5084834;28;20325;-81
2022/03/15 07:37:58;;;;;;;12.47;12.07;;;3.70;99.90;;;;;;5084215;28;20233;-81
2022/03/15 07:40:27;;;;;;;12.30;11.90;;;3.80;99.90;;;;;;5084416;28;20236;-82
2022/03/15 07:42:57;;;;;;;12.40;12.00;;;3.80;99.90;;;;;;5085528;28;20220;-81
2022/03/15 07:45:26;;;;;;;12.50;12.10;;;3.80;99.90;;;;;;5085526;28;20229;-82
2022/03/15 07:47:55;;;;;;;12.33;11.93;;;3.80;99.90;;;;;;5085424;28;20239;-81
2022/03/15 07:53:18;;;;;;;12.17;11.77;;;4.00;99.90;;;;;;5083302;28;20252;-81
2022/03/15 07:55:51;;;;;;;12.20;11.80;;;4.10;99.90;;;;;;5085477;28;20241;-81
2022/03/15 07:58:21;;;;;;;11.67;11.27;;;4.20;99.90;;;;;;5084754;28;20238;-83
2022/03/15 08:08:10;;;;;;;11.80;11.40;;;4.70;99.90;;;;;;5075290;28;20228;-83
2022/03/15 08:21:49;;;;;;;11.40;11.00;;;5.10;99.90;;;;;;5083933;28;20259;-82
2022/03/15 08:24:28;;;;;;;11.13;10.80;;;5.20;99.90;;;;;;5085058;28;20234;-83
2022/03/15 08:27:04;;;;;;;11.33;10.93;;;5.30;99.90;;;;;;5083664;28;20226;-82
2022/03/15 08:29:33;;;;;;;11.10;10.80;;;5.30;99.90;;;;;;5083618;28;20210;-82
2022/03/15 08:32:06;;;;;;;11.10;10.80;;;5.30;99.90;;;;;;5083740;28;20242;-83
2022/03/15 08:34:34;;;;;;;11.10;10.80;;;5.40;99.90;;;;;;5082728;28;20238;-82
2022/03/15 08:37:12;;;;;;;11.20;10.90;;;5.50;99.90;;;;;;5082085;28;20230;-83
2022/03/15 08:39:43;;;;;;;11.10;10.80;;;5.50;99.90;;;;;;5083591;28;20236;-82
2022/03/15 08:42:11;;;;;;;10.60;10.30;;;5.60;99.90;;;;;;5083501;28;20230;-84
2022/03/15 08:44:42;;;;;;;11.40;11.00;;;5.70;99.90;;;;;;5083690;28;20230;-83
2022/03/15 08:47:17;;;;;;;11.40;11.00;;;5.80;99.90;;;;;;5082725;28;20258;-83
2022/03/15 08:52:50;;;;;;;10.87;10.57;;;5.90;99.90;;;;;;5081260;28;20229;-83
2022/03/15 09:01:12;;;;;;;10.57;10.27;;;6.30;99.90;;;;;;5083035;28;20278;-83
2022/03/15 09:06:47;;;;;;;10.60;10.30;;;6.60;99.90;;;;;;5080875;28;20226;-84
2022/03/15 09:09:25;;;;;;;10.80;10.50;;;6.70;99.90;;;;;;5078738;28;21112;-83
2022/03/15 09:15:01;;;;;;;10.60;10.30;;;6.80;99.90;;;;;;5060580;28;20230;-83
2022/03/15 09:17:36;;;;;;;10.77;10.47;;;6.90;99.90;;;;;;5063363;28;20235;-83
2022/03/15 09:20:09;;;;;;;10.70;10.40;;;7.00;99.90;;;;;;5064013;28;20265;-84
2022/03/15 09:22:48;;;;;;;10.47;10.17;;;7.00;99.90;;;;;;5062155;28;20226;-87
2022/03/15 09:25:22;;;;;;;10.40;10.10;;;7.10;99.90;;;;;;5093328;28;20226;-84
2022/03/15 09:28:10;;;;;;;10.30;10.00;;;7.20;99.90;;;;;;5074009;28;20225;-83
2022/03/15 09:33:53;;;;;;;10.80;10.50;;;7.40;99.90;;;;;;5109124;22;20228;-85
2022/03/15 09:36:31;;;;;;;10.63;10.33;;;7.60;99.90;;;;;;5102444;28;20240;-85
2022/03/15 09:39:21;;;;;;;10.73;10.43;;;7.50;99.90;;;;;;5110736;28;20231;-84
2022/03/15 09:50:35;;;;;;;10.60;10.30;;;7.80;99.90;;;;;;5078752;28;20224;-82
2022/03/15 09:53:06;;;;;;;10.90;10.60;;;7.90;99.90;;;;;;5086718;28;20230;-83
2022/03/15 09:55:35;;;;;;;10.50;10.20;;;8.00;99.90;;;;;;5085664;28;20223;-82
2022/03/15 09:58:05;;;;;;;10.90;10.60;;;8.10;99.90;;;;;;5095510;28;20234;-82
2022/03/15 10:00:37;;;;;;;10.97;10.67;;;8.10;99.90;;;;;;5083509;28;20241;-83
2022/03/15 10:06:41;;;;;;;10.90;10.60;;;8.10;99.90;;;;;;5077986;28;20210;-85
2022/03/15 10:09:13;;;;;;;10.73;10.43;;;8.00;99.90;;;;;;5080681;28;20233;-84
2022/03/15 10:12:00;;;;;;;10.80;10.50;;;8.10;99.90;;;;;;5088953;28;20285;-85
2022/03/15 10:14:29;;;;;;;11.00;10.70;;;8.20;99.90;;;;;;5085757;28;20256;-86
2022/03/15 10:17:11;;;;;;;10.70;10.40;;;8.30;99.90;;;;;;5081449;28;20216;-86
2022/03/15 10:19:56;;;;;;;10.80;10.50;;;8.30;99.90;;;;;;5081382;28;20238;-86
2022/03/15 10:25:16;;;;;;;11.17;10.87;;;8.40;99.90;;;;;;5077026;28;20226;-84
2022/03/15 10:27:50;;;;;;;10.90;10.60;;;8.40;99.90;;;;;;5082406;28;20230;-84
2022/03/15 10:31:00;;;;;;;10.80;10.50;;;8.50;99.90;;;;;;5082391;28;20233;-84
2022/03/15 10:33:51;;;;;;;11.00;10.70;;;8.60;99.90;;;;;;5019199;28;20347;-85
2022/03/15 10:36:27;;;;;;;10.97;10.67;;;8.70;99.90;;;;;;5038171;28;20224;-84
2022/03/15 10:39:08;;;;;;;10.63;10.33;;;8.90;99.90;;;;;;5091819;28;20225;-85
2022/03/15 10:41:53;;;;;;;10.83;10.53;;;9.00;99.90;;;;;;5085081;28;20234;-84
2022/03/15 10:47:27;;;;;;;10.77;10.47;;;9.20;99.90;;;;;;5082911;28;20733;-85
2022/03/15 10:50:07;;;;;;;10.80;10.50;;;9.40;99.90;;;;;;5089644;28;20215;-86
2022/03/15 10:52:44;;;;;;;10.80;10.50;;;9.60;99.90;;;;;;5080889;28;20240;-86
2022/03/15 10:55:22;;;;;;;10.80;10.50;;;9.70;99.90;;;;;;5080747;28;20238;-86
2022/03/15 10:58:00;;;;;;;10.80;10.50;;;9.80;99.90;;;;;;5080951;28;20218;-86
2022/03/15 11:00:39;;;;;;;10.90;10.60;;;9.70;99.90;;;;;;5082782;28;20217;-85
2022/03/15 11:03:23;;;;;;;10.60;10.30;;;9.80;99.90;;;;;;5085044;28;20241;-85
2022/03/15 11:05:56;;;;;;;10.60;10.30;;;9.90;99.90;;;;;;5086654;28;20233;-85
2022/03/15 11:08:37;;;;;;;10.33;10.03;;;10.00;99.90;;;;;;5084247;28;20249;-85
2022/03/15 11:11:44;;;;;;;10.57;10.27;;;10.10;99.90;;;;;;5084895;28;20268;-84
2022/03/15 11:14:17;;;;;;;10.23;9.93;;;10.10;99.90;;;;;;5098219;28;20237;-86
2022/03/15 11:16:54;;;;;;;10.30;10.00;;;10.20;99.90;;;;;;5102977;28;20218;-85
2022/03/15 11:19:32;;;;;;;10.00;9.70;;;10.20;99.90;;;;;;5095198;28;20218;-85
2022/03/15 11:22:03;;;;;;;10.10;9.80;;;10.20;99.90;;;;;;5094888;28;20221;-85
2022/03/15 11:24:40;;;;;;;10.13;9.83;;;10.10;99.90;;;;;;5100970;28;20226;-85
2022/03/15 11:27:10;;;;;;;10.20;9.90;;;10.10;99.90;;;;;;5087904;28;20237;-85
2022/03/15 11:29:51;;;;;;;10.27;9.97;;;10.10;99.90;;;;;;5085007;28;20291;-84
2022/03/15 11:32:35;;;;;;;10.20;9.90;;;10.10;99.90;;;;;;5085718;28;20234;-85
2022/03/15 11:35:13;;;;;;;10.30;10.00;;;10.10;99.90;;;;;;5063570;28;20330;-85
2022/03/15 11:37:52;;;;;;;10.17;9.87;;;10.10;99.90;;;;;;5062803;28;20249;-85
2022/03/15 11:40:34;;;;;;;10.23;9.93;;;10.10;99.90;;;;;;5063837;28;20227;-85
2022/03/15 11:43:20;;;;;;;10.50;10.20;;;10.20;99.90;;;;;;5065579;28;20301;-85
2022/03/15 11:46:03;;;;;;;10.80;10.50;;;10.30;99.90;;;;;;5063927;28;20227;-84
2022/03/15 11:48:50;;;;;;;10.70;10.40;;;10.30;99.90;;;;;;5062578;28;20242;-83
2022/03/15 11:51:32;;;;;;;10.60;10.30;;;10.30;99.90;;;;;;5062763;28;20230;-84
2022/03/15 11:54:09;;;;;;;10.70;10.40;;;10.30;99.90;;;;;;5063675;28;20290;-84
2022/03/15 11:56:48;;;;;;;10.70;10.40;;;10.40;99.90;;;;;;5064338;28;20294;-84
2022/03/15 11:59:17;;;;;;;10.60;10.30;;;10.40;99.90;;;;;;5078412;28;20230;-84
2022/03/15 12:01:46;;;;;;;10.80;10.50;;;10.50;99.90;;;;;;5083676;28;20249;-86
2022/03/15 12:04:16;;;;;;;10.63;10.33;;;10.50;99.90;;;;;;5083738;28;20222;-85
2022/03/15 12:06:54;;;;;;;10.63;10.33;;;10.60;99.90;;;;;;5084206;28;20232;-85
2022/03/15 12:09:34;;;;;;;10.50;10.20;;;10.60;99.90;;;;;;5084258;28;20240;-84
2022/03/15 12:12:10;;;;;;;10.70;10.40;;;10.60;99.90;;;;;;5062959;28;20239;-85
2022/03/15 12:14:51;;;;;;;10.50;10.20;;;10.60;99.90;;;;;;5063392;28;20241;-85
2022/03/15 12:17:20;;;;;;;10.73;10.43;;;10.60;99.90;;;;;;5063113;28;20254;-84
2022/03/15 12:22:47;;;;;;;10.70;10.40;;;10.60;99.90;;;;;;5064401;28;20235;-84
2022/03/15 12:28:08;;;;;;;10.50;10.20;;;10.70;99.90;;;;;;5083648;28;20232;-85
2022/03/15 12:31:12;;;;;;;10.30;10.00;;;10.70;99.90;;;;;;5083660;28;20233;-85
2022/03/15 12:37:26;;;;;;;10.17;9.87;;;10.80;99.90;;;;;;5061208;28;20240;-85
2022/03/15 12:40:19;;;;;;;10.43;10.13;;;10.80;99.90;;;;;;5085592;28;20226;-85
2022/03/15 12:48:39;;;;;;;10.17;9.87;;;11.00;99.90;;;;;;5082488;28;20223;-86
2022/03/15 12:51:19;;;;;;;10.40;10.10;;;11.00;99.90;;;;;;5083713;28;20240;-85
2022/03/15 12:53:49;;;;;;;10.40;10.10;;;11.00;99.90;;;;;;5134422;22;20236;-88
2022/03/15 12:56:25;;;;;;;10.23;9.93;;;11.00;99.90;;;;;;5099545;28;20229;-88
2022/03/15 12:59:16;;;;;;;10.10;9.80;;;11.10;99.90;;;;;;5100597;28;20303;-88
2022/03/15 13:04:37;;;;;;;10.60;10.30;;;11.20;99.90;;;;;;5105997;28;20231;-88
2022/03/15 13:07:10;;;;;;;10.43;10.13;;;11.20;99.90;;;;;;5099431;28;20283;-87
2022/03/15 13:16:11;;;;;;;10.30;10.00;;;11.30;99.90;;;;;;4981404;28;20230;-85
2022/03/15 13:18:58;;;;;;;10.53;10.23;;;11.20;99.90;;;;;;5093926;28;20236;-85
2022/03/15 13:29:43;;;;;;;10.40;10.10;;;11.10;99.90;;;;;;5026543;28;20233;-89
2022/03/15 13:32:36;;;;;;;10.40;10.10;;;11.10;99.90;;;;;;5098715;28;20233;-89
2022/03/15 13:37:54;;;;;;;10.20;9.90;;;11.10;99.90;;;;;;5089215;28;20617;-88
2022/03/15 13:40:24;;;;;;;10.20;9.90;;;11.10;99.90;;;;;;5099705;28;20229;-88
2022/03/15 13:42:52;;;;;;;10.60;10.30;;;11.10;99.90;;;;;;5098518;28;20249;-87
2022/03/15 13:48:18;;;;;;;10.87;10.57;;;11.10;99.90;;;;;;5098064;28;20249;-89
2022/03/15 13:51:23;;;;;;;10.60;10.30;;;11.00;99.90;;;;;;5098949;28;20309;-88
2022/03/15 13:53:52;;;;;;;10.70;10.40;;;11.00;99.90;;;;;;5099126;28;20332;-89
2022/03/15 13:56:24;;;;;;;10.40;10.10;;;11.00;99.90;;;;;;5098611;28;20218;-87
2022/03/15 13:59:01;;;;;;;10.40;10.10;;;10.90;99.90;;;;;;5100023;28;20225;-87
2022/03/15 14:01:40;;;;;;;10.50;10.20;;;10.90;99.90;;;;;;5099516;28;20251;-87
2022/03/15 14:04:10;;;;;;;10.60;10.30;;;10.90;99.90;;;;;;5100303;28;20286;-86
2022/03/15 14:06:45;;;;;;;10.70;10.40;;;10.90;99.90;;;;;;5099525;28;20278;-87
2022/03/15 14:09:25;;;;;;;10.80;10.50;;;10.90;99.90;;;;;;5100357;28;20239;-88
2022/03/15 14:12:30;;;;;;;10.60;10.30;;;10.90;99.90;;;;;;5099680;28;20237;-88
2022/03/15 14:17:58;;;;;;;10.87;10.57;;;10.90;99.90;;;;;;5106287;28;20275;-88
2022/03/15 14:20:51;;;;;;;11.03;10.73;;;10.80;99.90;;;;;;5104586;28;20221;-88
2022/03/15 14:23:30;;;;;;;10.53;10.23;;;10.80;99.90;;;;;;5101345;28;20241;-88
2022/03/15 14:28:44;;;;;;;10.50;10.20;;;10.80;99.90;;;;;;5098097;28;20222;-88
2022/03/15 14:31:17;;;;;;;10.40;10.10;;;10.70;99.90;;;;;;5099352;28;20308;-88
2022/03/15 14:33:46;;;;;;;10.50;10.20;;;10.70;99.90;;;;;;5098137;28;20328;-90
2022/03/15 14:36:16;;;;;;;10.40;10.10;;;10.60;99.90;;;;;;5100415;28;20229;-89
2022/03/15 14:38:52;;;;;;;10.43;10.13;;;10.50;99.90;;;;;;5101166;28;20312;-89
2022/03/15 14:41:27;;;;;;;10.40;10.10;;;10.50;99.90;;;;;;5101385;28;20229;-88
2022/03/15 14:43:59;;;;;;;10.23;9.93;;;10.50;99.90;;;;;;5101471;28;20295;-89